createdAt,value
2024-01-30T00:00:01.733Z,16.20
2024-01-30T00:02:31.758Z,12.77
2024-01-30T00:04:58.233Z,15.30
2024-01-30T00:07:24.839Z,12.67
2024-01-30T00:09:51.399Z,14.67
2024-01-30T00:12:17.905Z,12.57
2024-01-30T00:14:44.697Z,13.53
2024-01-30T00:17:11.260Z,10.77
2024-01-30T00:19:37.897Z,12.60
2024-01-30T00:22:04.661Z,13.33
2024-01-30T00:24:31.141Z,14.70
2024-01-30T00:26:57.601Z,16.43
2024-01-30T00:29:24.237Z,14.93
2024-01-30T00:31:50.925Z,13.33
2024-01-30T00:34:17.450Z,9.73
2024-01-30T00:36:44.061Z,12.47
2024-01-30T00:39:10.834Z,14.07
2024-01-30T00:41:37.371Z,13.33
2024-01-30T00:44:03.972Z,11.93
2024-01-30T00:46:30.477Z,14.37
2024-01-30T00:48:57.044Z,8.90
2024-01-30T00:51:23.558Z,15.90
2024-01-30T00:53:50.019Z,9.20
2024-01-30T00:56:19.292Z,13.73
2024-01-30T00:58:45.811Z,14.70
2024-01-30T01:01:12.426Z,12.17
2024-01-30T01:03:39.094Z,10.37
2024-01-30T01:06:05.885Z,13.70
2024-01-30T01:08:32.352Z,13.77
2024-01-30T01:10:58.791Z,11.33
2024-01-30T01:13:25.254Z,14.30
2024-01-30T01:15:51.714Z,18.60
2024-01-30T01:18:18.263Z,16.70
2024-01-30T01:20:44.722Z,17.07
2024-01-30T01:23:11.222Z,17.73
2024-01-30T01:25:37.635Z,16.20
2024-01-30T01:28:04.911Z,16.80
2024-01-30T01:30:31.509Z,15.73
2024-01-30T01:33:01.142Z,11.43
2024-01-30T01:35:27.829Z,17.30
2024-01-30T01:37:59.517Z,14.47
2024-01-30T01:40:27.391Z,18.73
2024-01-30T01:42:55.668Z,20.30
2024-01-30T01:45:22.837Z,11.07
2024-01-30T01:47:52.224Z,16.97
2024-01-30T01:50:19.917Z,15.90
2024-01-30T01:52:48.885Z,15.37
2024-01-30T01:55:19.361Z,15.87
2024-01-30T01:57:46.200Z,16.50
2024-01-30T02:00:13.542Z,16.77
2024-01-30T02:02:40.122Z,10.07
2024-01-30T02:05:07.057Z,8.60
2024-01-30T02:07:33.586Z,16.10
2024-01-30T02:10:00.278Z,11.03
2024-01-30T02:12:26.752Z,8.90
2024-01-30T02:14:54.562Z,16.10
2024-01-30T02:17:21.082Z,8.93
2024-01-30T02:19:47.845Z,18.80
2024-01-30T02:22:14.638Z,22.10
2024-01-30T02:24:41.467Z,20.43
2024-01-30T02:27:07.997Z,16.13
2024-01-30T02:29:34.621Z,19.60
2024-01-30T02:32:01.139Z,15.97
2024-01-30T02:34:27.734Z,16.53
2024-01-30T02:36:54.328Z,20.37
2024-01-30T02:39:20.886Z,18.20
2024-01-30T02:41:47.383Z,19.10
2024-01-30T02:44:13.866Z,20.93
2024-01-30T02:46:40.349Z,18.87
2024-01-30T02:49:06.824Z,15.43
2024-01-30T02:51:33.386Z,16.97
2024-01-30T02:53:59.793Z,16.67
2024-01-30T02:56:26.337Z,12.80
2024-01-30T02:58:52.752Z,16.70
2024-01-30T03:01:19.333Z,19.23
2024-01-30T03:03:45.889Z,18.30
2024-01-30T03:06:12.381Z,18.80
2024-01-30T03:08:38.836Z,19.33
2024-01-30T03:11:05.253Z,20.60
2024-01-30T03:13:31.839Z,14.90
2024-01-30T03:15:58.316Z,18.80
2024-01-30T03:18:24.886Z,20.23
2024-01-30T03:20:51.451Z,20.67
2024-01-30T03:23:17.956Z,18.60
2024-01-30T03:25:44.527Z,19.27
2024-01-30T03:28:10.963Z,17.93
2024-01-30T03:30:37.447Z,18.77
2024-01-30T03:33:04.113Z,17.83
2024-01-30T03:35:30.560Z,20.57
2024-01-30T03:37:57.028Z,18.37
2024-01-30T03:40:23.564Z,18.70
2024-01-30T03:42:50.028Z,15.20
2024-01-30T03:45:16.560Z,13.97
2024-01-30T03:47:44.920Z,18.77
2024-01-30T03:50:11.524Z,17.57
2024-01-30T03:52:38.188Z,12.77
2024-01-30T03:55:05.076Z,19.70
2024-01-30T03:57:31.577Z,17.47
2024-01-30T03:59:59.782Z,18.30
2024-01-30T04:02:27.584Z,21.17
2024-01-30T04:04:54.217Z,15.60
2024-01-30T04:07:23.334Z,14.90
2024-01-30T04:09:50.933Z,20.93
2024-01-30T04:12:17.833Z,14.23
2024-01-30T04:14:44.921Z,14.03
2024-01-30T04:17:11.431Z,20.43
2024-01-30T04:19:40.956Z,20.10
2024-01-30T04:22:07.597Z,18.23
2024-01-30T04:24:34.157Z,19.57
2024-01-30T04:27:00.575Z,19.93
2024-01-30T04:29:26.969Z,15.20
2024-01-30T04:31:53.513Z,21.20
2024-01-30T04:34:20.046Z,23.40
2024-01-30T04:36:47.342Z,18.87
2024-01-30T04:39:14.004Z,19.40
2024-01-30T04:41:40.840Z,18.33
2024-01-30T04:44:07.844Z,19.93
2024-01-30T04:46:35.603Z,19.80
2024-01-30T04:49:02.213Z,21.10
2024-01-30T04:51:28.725Z,26.50
2024-01-30T04:53:55.961Z,22.80
2024-01-30T04:56:22.439Z,22.43
2024-01-30T04:58:48.876Z,23.20
2024-01-30T05:01:18.620Z,25.93
2024-01-30T05:03:45.728Z,22.43
2024-01-30T05:06:12.477Z,24.27
2024-01-30T05:08:39.026Z,24.80
2024-01-30T05:11:06.631Z,21.87
2024-01-30T05:13:33.736Z,18.13
2024-01-30T05:16:02.585Z,20.57
2024-01-30T05:18:29.228Z,23.77
2024-01-30T05:20:55.964Z,26.73
2024-01-30T05:23:22.361Z,21.00
2024-01-30T05:25:50.289Z,24.27
2024-01-30T05:28:16.961Z,23.73
2024-01-30T05:30:43.633Z,19.37
2024-01-30T05:33:10.784Z,22.10
2024-01-30T05:35:37.386Z,22.80
2024-01-30T05:38:04.173Z,19.80
2024-01-30T05:40:31.060Z,22.67
2024-01-30T05:43:01.741Z,21.53
2024-01-30T05:45:28.225Z,22.97
2024-01-30T05:47:55.437Z,21.50
2024-01-30T05:50:24.343Z,23.77
2024-01-30T05:52:50.891Z,23.80
2024-01-30T05:55:17.395Z,22.37
2024-01-30T05:57:43.855Z,20.23
2024-01-30T06:00:10.632Z,15.83
2024-01-30T06:02:37.459Z,15.87
2024-01-30T06:05:04.216Z,19.07
2024-01-30T06:07:34.433Z,20.23
2024-01-30T06:10:04.009Z,16.77
2024-01-30T06:12:30.589Z,18.30
2024-01-30T06:14:57.999Z,19.43
2024-01-30T06:17:24.825Z,19.07
2024-01-30T06:19:51.453Z,18.67
2024-01-30T06:22:18.106Z,18.73
2024-01-30T06:24:46.085Z,18.40
2024-01-30T06:27:12.846Z,18.07
2024-01-30T06:29:39.335Z,14.07
2024-01-30T06:32:06.419Z,22.60
2024-01-30T06:34:33.007Z,19.97
2024-01-30T06:36:59.614Z,20.47
2024-01-30T06:39:27.562Z,23.93
2024-01-30T06:41:54.101Z,25.40
2024-01-30T06:44:20.540Z,23.07
2024-01-30T06:46:46.995Z,24.00
2024-01-30T06:49:13.502Z,22.27
2024-01-30T06:51:39.920Z,22.10
2024-01-30T06:54:06.348Z,21.60
2024-01-30T06:56:33.033Z,21.50
2024-01-30T06:59:00.623Z,21.27
2024-01-30T07:01:30.980Z,23.27
2024-01-30T07:03:58.621Z,24.63
2024-01-30T07:06:25.330Z,23.77
2024-01-30T07:08:51.825Z,24.10
2024-01-30T07:11:23.253Z,24.13
2024-01-30T07:13:49.981Z,19.10
2024-01-30T07:16:16.726Z,23.10
2024-01-30T07:18:44.331Z,18.20
2024-01-30T07:21:11.144Z,20.77
2024-01-30T07:23:39.836Z,21.23
2024-01-30T07:26:07.753Z,17.63
2024-01-30T07:28:34.455Z,21.17
2024-01-30T07:31:01.625Z,19.83
2024-01-30T07:33:28.214Z,19.17
2024-01-30T07:35:54.936Z,20.13
2024-01-30T07:38:21.647Z,20.77
2024-01-30T07:40:48.094Z,19.43
2024-01-30T07:43:14.675Z,20.57
2024-01-30T07:45:41.160Z,22.67
2024-01-30T07:48:07.894Z,23.27
2024-01-30T07:50:34.593Z,25.53
2024-01-30T07:53:02.266Z,24.53
2024-01-30T07:55:30.129Z,22.40
2024-01-30T07:57:56.946Z,24.60
2024-01-30T08:00:23.532Z,23.07
2024-01-30T08:02:49.998Z,23.07
2024-01-30T08:05:16.618Z,20.17
2024-01-30T08:07:47.212Z,18.27
2024-01-30T08:10:16.655Z,21.80
2024-01-30T08:12:43.098Z,22.60
2024-01-30T08:15:09.955Z,17.27
2024-01-30T08:17:36.434Z,21.33
2024-01-30T08:20:05.474Z,20.93
2024-01-30T08:22:32.088Z,20.23
2024-01-30T08:24:58.669Z,20.47
2024-01-30T08:27:25.165Z,19.07
2024-01-30T08:29:51.632Z,21.67
2024-01-30T08:32:18.141Z,22.00
2024-01-30T08:34:44.675Z,21.20
2024-01-30T08:37:11.213Z,20.20
2024-01-30T08:39:38.642Z,20.97
2024-01-30T08:42:05.481Z,21.80
2024-01-30T08:44:31.955Z,21.43
2024-01-30T08:46:59.534Z,19.93
2024-01-30T08:49:26.933Z,20.43
2024-01-30T08:51:53.486Z,23.03
2024-01-30T08:54:19.917Z,23.03
2024-01-30T08:56:46.431Z,23.00
2024-01-30T08:59:14.098Z,20.70
2024-01-30T09:01:42.359Z,22.47
2024-01-30T09:04:11.129Z,20.60
2024-01-30T09:06:40.493Z,22.87
2024-01-30T09:09:07.210Z,20.87
2024-01-30T09:11:33.633Z,17.00
2024-01-30T09:14:00.136Z,24.43
2024-01-30T09:16:26.660Z,21.03
2024-01-30T09:18:53.272Z,25.60
2024-01-30T09:21:19.893Z,22.17
2024-01-30T09:23:46.367Z,22.73
2024-01-30T09:26:13.696Z,22.83
2024-01-30T09:28:40.218Z,21.30
2024-01-30T09:31:11.511Z,21.30
2024-01-30T09:33:38.107Z,20.33
2024-01-30T09:36:04.857Z,23.23
2024-01-30T09:38:31.380Z,25.17
2024-01-30T09:41:04.425Z,24.90
2024-01-30T09:43:34.272Z,24.63
2024-01-30T09:46:03.353Z,22.60
2024-01-30T09:48:31.316Z,22.27
2024-01-30T09:50:58.681Z,23.13
2024-01-30T09:53:25.887Z,23.70
2024-01-30T09:55:52.434Z,22.50
2024-01-30T09:58:19.151Z,23.43
2024-01-30T10:00:45.689Z,22.43
2024-01-30T10:03:12.268Z,23.13
2024-01-30T10:05:41.573Z,22.37
2024-01-30T10:08:11.438Z,20.80
2024-01-30T10:10:38.140Z,21.83
2024-01-30T10:13:05.955Z,26.43
2024-01-30T10:15:32.724Z,22.73
2024-01-30T10:18:00.568Z,21.10
2024-01-30T10:20:27.264Z,24.23
2024-01-30T10:22:53.798Z,22.40
2024-01-30T10:25:22.913Z,23.47
2024-01-30T10:27:54.375Z,20.60
2024-01-30T10:30:20.920Z,21.07
2024-01-30T10:32:47.487Z,20.03
2024-01-30T10:35:14.376Z,21.97
2024-01-30T10:37:41.160Z,22.07
2024-01-30T10:40:10.063Z,21.93
2024-01-30T10:42:38.999Z,20.67
2024-01-30T10:45:10.540Z,21.23
2024-01-30T10:47:38.042Z,21.73
2024-01-30T10:50:05.725Z,20.83
2024-01-30T10:52:33.436Z,21.30
2024-01-30T10:55:00.415Z,20.93
2024-01-30T10:57:28.061Z,21.10
2024-01-30T10:59:58.260Z,21.93
2024-01-30T11:02:25.802Z,19.57
2024-01-30T11:04:58.464Z,18.73
2024-01-30T11:07:27.843Z,19.20
2024-01-30T11:10:04.747Z,22.83
2024-01-30T11:12:35.847Z,21.20
2024-01-30T11:15:05.597Z,20.90
2024-01-30T11:17:45.301Z,21.55
2024-01-30T11:20:24.599Z,21.35
2024-01-30T11:22:55.516Z,20.92
2024-01-30T11:25:23.699Z,18.23
2024-01-30T11:27:55.205Z,20.45
2024-01-30T11:30:26.654Z,17.20
2024-01-30T11:33:05.476Z,18.20
2024-01-30T11:35:34.321Z,16.20
2024-01-30T11:38:01.746Z,18.02
2024-01-30T11:40:30.463Z,17.73
2024-01-30T11:42:58.992Z,17.80
2024-01-30T11:45:25.613Z,17.67
2024-01-30T11:47:52.295Z,17.75
2024-01-30T11:50:19.345Z,16.02
2024-01-30T11:52:45.993Z,16.73
2024-01-30T11:55:14.223Z,19.17
2024-01-30T11:57:40.847Z,17.83
2024-01-30T12:00:14.956Z,16.65
2024-01-30T12:02:41.436Z,18.13
2024-01-30T12:05:08.503Z,19.10
2024-01-30T12:07:35.256Z,17.40
2024-01-30T12:10:02.159Z,18.30
2024-01-30T12:12:29.750Z,17.60
2024-01-30T12:14:57.018Z,18.88
2024-01-30T12:17:35.997Z,18.50
2024-01-30T12:20:16.320Z,16.63
2024-01-30T12:22:44.439Z,17.98
2024-01-30T12:25:12.498Z,17.27
2024-01-30T12:27:39.949Z,15.82
2024-01-30T12:30:08.136Z,18.77
2024-01-30T12:32:38.662Z,18.45
2024-01-30T12:35:09.135Z,20.45
2024-01-30T12:37:35.917Z,18.37
2024-01-30T12:40:03.405Z,19.03
2024-01-30T12:42:30.179Z,16.73
2024-01-30T12:44:58.738Z,17.90
2024-01-30T12:47:25.406Z,17.40
2024-01-30T12:49:55.456Z,16.93
2024-01-30T12:52:23.138Z,13.70
2024-01-30T12:54:50.199Z,17.30
2024-01-30T12:57:17.373Z,17.90
2024-01-30T12:59:45.137Z,18.27
2024-01-30T13:02:12.271Z,18.37
2024-01-30T13:04:38.981Z,17.97
2024-01-30T13:07:05.623Z,18.17
2024-01-30T13:09:32.718Z,18.37
2024-01-30T13:11:59.758Z,18.07
2024-01-30T13:14:26.716Z,16.93
2024-01-30T13:16:53.727Z,17.03
2024-01-30T13:19:20.582Z,17.20
2024-01-30T13:21:47.500Z,18.30
2024-01-30T13:24:14.112Z,18.83
2024-01-30T13:26:40.677Z,16.47
2024-01-30T13:29:07.150Z,15.97
2024-01-30T13:31:33.637Z,17.53
2024-01-30T13:34:00.236Z,18.60
2024-01-30T13:36:27.009Z,16.27
2024-01-30T13:38:53.457Z,18.20
2024-01-30T13:41:20.013Z,16.57
2024-01-30T13:43:46.472Z,15.50
2024-01-30T13:46:13.103Z,17.07
2024-01-30T13:48:39.648Z,15.17
2024-01-30T13:51:06.664Z,15.80
2024-01-30T13:53:33.181Z,16.67
2024-01-30T13:55:59.672Z,12.60
2024-01-30T13:58:26.314Z,14.83
2024-01-30T14:00:52.901Z,19.17
2024-01-30T14:03:19.435Z,17.47
2024-01-30T14:05:46.042Z,18.10
2024-01-30T14:08:12.872Z,16.23
2024-01-30T14:10:39.499Z,17.33
2024-01-30T14:13:06.275Z,15.30
2024-01-30T14:15:32.762Z,16.97
2024-01-30T14:17:59.803Z,18.23
2024-01-30T14:20:26.845Z,16.27
2024-01-30T14:22:55.059Z,18.03
2024-01-30T14:25:21.605Z,17.93
2024-01-30T14:27:48.171Z,18.70
2024-01-30T14:30:14.767Z,19.77
2024-01-30T14:32:43.601Z,16.87
2024-01-30T14:35:10.250Z,16.53
2024-01-30T14:37:37.098Z,15.63
2024-01-30T14:40:04.475Z,12.97
2024-01-30T14:42:32.412Z,12.80
2024-01-30T14:44:59.487Z,17.83
2024-01-30T14:47:27.115Z,20.60
2024-01-30T14:49:53.713Z,16.93
2024-01-30T14:52:20.182Z,20.97
2024-01-30T14:54:47.075Z,18.00
2024-01-30T14:57:15.225Z,16.73
2024-01-30T14:59:42.161Z,18.90
2024-01-30T15:02:08.672Z,17.43
2024-01-30T15:04:35.424Z,20.40
2024-01-30T15:07:02.508Z,19.47
2024-01-30T15:09:31.354Z,18.03
2024-01-30T15:11:58.419Z,19.13
2024-01-30T15:14:25.336Z,17.83
2024-01-30T15:16:52.062Z,20.17
2024-01-30T15:19:18.701Z,18.30
2024-01-30T15:21:45.198Z,18.90
2024-01-30T15:24:15.762Z,17.20
2024-01-30T15:26:42.431Z,22.30
2024-01-30T15:29:08.847Z,18.03
2024-01-30T15:31:35.278Z,19.10
2024-01-30T15:34:01.852Z,15.37
2024-01-30T15:36:28.336Z,18.83
2024-01-30T15:38:54.743Z,17.07
2024-01-30T15:41:22.145Z,15.77
2024-01-30T15:43:48.656Z,18.40
2024-01-30T15:46:15.349Z,13.90
2024-01-30T15:48:41.952Z,14.40
2024-01-30T15:51:08.439Z,20.70
2024-01-30T15:53:35.708Z,17.33
2024-01-30T15:56:02.207Z,19.67
2024-01-30T15:58:28.733Z,19.63
2024-01-30T16:00:55.513Z,19.17
2024-01-30T16:03:22.073Z,17.20
2024-01-30T16:05:48.523Z,15.97
2024-01-30T16:08:14.951Z,17.73
2024-01-30T16:10:41.526Z,18.47
2024-01-30T16:13:08.288Z,16.40
2024-01-30T16:15:34.888Z,11.53
2024-01-30T16:18:01.361Z,13.43
2024-01-30T16:20:27.936Z,17.03
2024-01-30T16:22:56.349Z,9.67
2024-01-30T16:25:24.246Z,14.70
2024-01-30T16:27:51.044Z,17.83
2024-01-30T16:30:18.873Z,15.53
2024-01-30T16:32:46.122Z,19.63
2024-01-30T16:35:12.755Z,19.37
2024-01-30T16:37:39.348Z,11.50
2024-01-30T16:40:06.447Z,15.90
2024-01-30T16:42:32.985Z,18.00
2024-01-30T16:44:59.688Z,18.33
2024-01-30T16:47:26.123Z,15.47
2024-01-30T16:49:52.608Z,16.73
2024-01-30T16:52:20.852Z,19.57
2024-01-30T16:54:47.270Z,20.00
2024-01-30T16:57:13.678Z,18.67
2024-01-30T16:59:40.198Z,18.87
2024-01-30T17:02:06.828Z,18.17
2024-01-30T17:04:34.788Z,15.23
2024-01-30T17:07:03.134Z,17.47
2024-01-30T17:09:29.715Z,19.33
2024-01-30T17:11:56.285Z,16.20
2024-01-30T17:14:23.405Z,18.03
2024-01-30T17:16:56.801Z,22.00
2024-01-30T17:19:28.432Z,23.27
2024-01-30T17:21:54.993Z,24.00
2024-01-30T17:24:25.546Z,23.73
2024-01-30T17:26:56.697Z,20.57
2024-01-30T17:29:23.424Z,15.07
2024-01-30T17:31:51.217Z,17.20
2024-01-30T17:34:18.391Z,18.17
2024-01-30T17:36:44.871Z,18.93
2024-01-30T17:39:11.316Z,22.40
2024-01-30T17:41:37.839Z,19.77
2024-01-30T17:44:04.360Z,19.13
2024-01-30T17:46:30.922Z,20.50
2024-01-30T17:48:57.567Z,17.77
2024-01-30T17:51:24.105Z,18.93
2024-01-30T17:53:51.724Z,14.03
2024-01-30T17:56:19.355Z,19.30
2024-01-30T17:58:46.095Z,19.80
2024-01-30T18:01:12.980Z,19.83
2024-01-30T18:03:40.637Z,15.80
2024-01-30T18:06:07.289Z,17.03
2024-01-30T18:08:34.018Z,19.07
2024-01-30T18:11:00.611Z,18.20
2024-01-30T18:13:27.269Z,18.50
2024-01-30T18:15:53.926Z,21.17
2024-01-30T18:18:20.572Z,20.53
2024-01-30T18:20:47.203Z,20.90
2024-01-30T18:23:14.033Z,21.53
2024-01-30T18:25:40.559Z,18.33
2024-01-30T18:28:07.248Z,19.00
2024-01-30T18:30:33.681Z,20.10
2024-01-30T18:33:00.218Z,20.80
2024-01-30T18:35:26.803Z,22.53
2024-01-30T18:37:53.407Z,21.40
2024-01-30T18:40:20.464Z,20.73
2024-01-30T18:42:47.118Z,22.93
2024-01-30T18:45:13.941Z,18.77
2024-01-30T18:47:40.592Z,19.27
2024-01-30T18:50:07.821Z,20.13
2024-01-30T18:52:34.455Z,20.93
2024-01-30T18:55:01.126Z,19.90
2024-01-30T18:57:29.162Z,21.07
2024-01-30T18:59:55.621Z,21.30
2024-01-30T19:02:22.091Z,25.87
2024-01-30T19:04:51.181Z,22.33
2024-01-30T19:07:18.487Z,22.30
2024-01-30T19:09:45.042Z,24.23
2024-01-30T19:12:11.497Z,24.07
2024-01-30T19:14:38.172Z,24.10
2024-01-30T19:17:06.071Z,25.47
2024-01-30T19:19:32.619Z,23.50
2024-01-30T19:21:59.356Z,21.80
2024-01-30T19:24:25.976Z,20.60
2024-01-30T19:26:53.116Z,21.40
2024-01-30T19:29:22.321Z,23.63
2024-01-30T19:31:49.728Z,21.90
2024-01-30T19:34:16.346Z,22.87
2024-01-30T19:36:42.884Z,21.53
2024-01-30T19:39:14.149Z,24.40
2024-01-30T19:41:44.801Z,22.30
2024-01-30T19:44:11.646Z,20.80
2024-01-30T19:46:38.346Z,20.63
2024-01-30T19:49:05.114Z,23.13
2024-01-30T19:51:31.673Z,21.30
2024-01-30T19:53:58.138Z,21.03
2024-01-30T19:56:24.616Z,22.67
2024-01-30T19:58:51.146Z,22.10
2024-01-30T20:01:18.711Z,23.63
2024-01-30T20:03:45.364Z,22.37
2024-01-30T20:06:11.931Z,21.97
2024-01-30T20:08:38.580Z,22.17
2024-01-30T20:11:13.555Z,22.37
2024-01-30T20:13:41.402Z,26.57
2024-01-30T20:16:08.747Z,24.30
2024-01-30T20:18:35.291Z,23.60
2024-01-30T20:21:02.989Z,23.20
2024-01-30T20:23:30.133Z,22.03
2024-01-30T20:25:58.512Z,21.43
2024-01-30T20:28:26.370Z,23.60
2024-01-30T20:30:52.997Z,22.23
2024-01-30T20:33:19.618Z,24.50
2024-01-30T20:35:46.651Z,22.73
2024-01-30T20:38:13.155Z,22.37
2024-01-30T20:40:40.011Z,24.73
2024-01-30T20:43:06.890Z,24.47
2024-01-30T20:45:33.369Z,25.23
2024-01-30T20:47:59.937Z,24.53
2024-01-30T20:50:26.499Z,24.60
2024-01-30T20:52:53.193Z,23.63
2024-01-30T20:55:19.687Z,23.27
2024-01-30T20:57:46.221Z,22.03
2024-01-30T21:00:14.351Z,21.53
2024-01-30T21:02:40.996Z,22.17
2024-01-30T21:05:08.028Z,21.83
2024-01-30T21:07:34.763Z,22.10
2024-01-30T21:10:01.454Z,20.67
2024-01-30T21:12:29.076Z,21.13
2024-01-30T21:14:56.310Z,19.90
2024-01-30T21:17:22.776Z,22.30
2024-01-30T21:19:49.401Z,19.47
2024-01-30T21:22:15.925Z,20.00
2024-01-30T21:24:42.396Z,22.50
2024-01-30T21:27:08.866Z,21.23
2024-01-30T21:29:37.353Z,19.80
2024-01-30T21:32:06.799Z,19.80
2024-01-30T21:34:33.320Z,20.50
2024-01-30T21:36:59.813Z,20.77
2024-01-30T21:39:26.280Z,20.73
2024-01-30T21:41:53.430Z,18.87
2024-01-30T21:44:19.904Z,21.80
2024-01-30T21:46:46.402Z,20.97
2024-01-30T21:49:12.989Z,16.70
2024-01-30T21:51:39.544Z,19.63
2024-01-30T21:54:05.942Z,19.40
2024-01-30T21:56:32.469Z,20.27
2024-01-30T21:58:58.919Z,20.03
2024-01-30T22:01:25.476Z,20.13
2024-01-30T22:03:52.661Z,19.37
2024-01-30T22:06:20.877Z,22.37
2024-01-30T22:08:48.112Z,18.77
2024-01-30T22:11:14.659Z,20.33
2024-01-30T22:13:41.354Z,19.17
2024-01-30T22:16:08.188Z,19.93
2024-01-30T22:18:34.794Z,18.47
2024-01-30T22:21:02.831Z,18.27
2024-01-30T22:23:29.995Z,20.50
2024-01-30T22:25:56.411Z,21.03
2024-01-30T22:28:22.861Z,18.57
2024-01-30T22:30:49.311Z,19.30
2024-01-30T22:33:15.929Z,20.30
2024-01-30T22:35:42.596Z,20.60
2024-01-30T22:38:10.314Z,16.90
2024-01-30T22:40:37.159Z,19.80
2024-01-30T22:43:04.539Z,19.63
2024-01-30T22:45:31.103Z,20.10
2024-01-30T22:47:57.577Z,13.83
2024-01-30T22:50:24.112Z,18.90
2024-01-30T22:52:52.421Z,19.70
2024-01-30T22:55:19.018Z,20.03
2024-01-30T22:57:45.575Z,18.33
2024-01-30T23:00:15.626Z,12.50
2024-01-30T23:02:43.151Z,13.40
2024-01-30T23:05:11.287Z,12.83
2024-01-30T23:07:41.128Z,19.70
2024-01-30T23:10:11.330Z,20.97
2024-01-30T23:12:38.319Z,17.07
2024-01-30T23:15:05.832Z,20.67
2024-01-30T23:17:33.396Z,19.47
2024-01-30T23:20:00.675Z,19.77
2024-01-30T23:22:28.828Z,20.10
2024-01-30T23:24:55.395Z,17.70
2024-01-30T23:27:21.873Z,20.17
2024-01-30T23:29:48.291Z,19.67
2024-01-30T23:32:22.256Z,19.37
2024-01-30T23:34:52.689Z,18.17
2024-01-30T23:37:20.060Z,20.23
2024-01-30T23:39:46.711Z,19.20
2024-01-30T23:42:14.991Z,18.67
2024-01-30T23:44:41.437Z,19.73
2024-01-30T23:47:08.523Z,18.27
2024-01-30T23:49:35.091Z,20.90
2024-01-30T23:52:01.806Z,19.10
2024-01-30T23:54:28.643Z,16.10
2024-01-30T23:56:55.125Z,21.17
2024-01-30T23:59:21.656Z,21.90
